sensor_id;sensor_type;location;lat;lon;timestamp;P1;durP1;ratioP1;P2;durP2;ratioP2
10801;SDS011;5453;50.852;7.102;2024-02-23T00:00:54;0.63;;;0.20;;
10801;SDS011;5453;50.852;7.102;2024-02-23T00:03:26;0.15;;;0.15;;
10801;SDS011;5453;50.852;7.102;2024-02-23T00:05:59;0.35;;;0.35;;
10801;SDS011;5453;50.852;7.102;2024-02-23T00:08:32;0.20;;;0.20;;
10801;SDS011;5453;50.852;7.102;2024-02-23T00:11:05;1.55;;;0.22;;
10801;SDS011;5453;50.852;7.102;2024-02-23T00:13:37;0.52;;;0.22;;
10801;SDS011;5453;50.852;7.102;2024-02-23T00:16:10;0.25;;;0.25;;
10801;SDS011;5453;50.852;7.102;2024-02-23T00:18:42;0.22;;;0.22;;
10801;SDS011;5453;50.852;7.102;2024-02-23T00:21:15;0.10;;;0.10;;
10801;SDS011;5453;50.852;7.102;2024-02-23T00:23:48;0.20;;;0.20;;
10801;SDS011;5453;50.852;7.102;2024-02-23T00:26:21;0.22;;;0.22;;
10801;SDS011;5453;50.852;7.102;2024-02-23T00:28:53;0.60;;;0.20;;
10801;SDS011;5453;50.852;7.102;2024-02-23T00:31:26;0.25;;;0.25;;
10801;SDS011;5453;50.852;7.102;2024-02-23T00:33:58;0.73;;;0.22;;
10801;SDS011;5453;50.852;7.102;2024-02-23T00:36:30;0.43;;;0.43;;
10801;SDS011;5453;50.852;7.102;2024-02-23T00:39:04;0.10;;;0.10;;
10801;SDS011;5453;50.852;7.102;2024-02-23T00:41:38;0.25;;;0.25;;
10801;SDS011;5453;50.852;7.102;2024-02-23T00:44:10;0.22;;;0.22;;
10801;SDS011;5453;50.852;7.102;2024-02-23T00:46:44;1.75;;;0.40;;
10801;SDS011;5453;50.852;7.102;2024-02-23T00:49:16;0.25;;;0.25;;
10801;SDS011;5453;50.852;7.102;2024-02-23T00:51:48;0.30;;;0.30;;
10801;SDS011;5453;50.852;7.102;2024-02-23T00:54:22;1.25;;;0.40;;
10801;SDS011;5453;50.852;7.102;2024-02-23T00:56:54;0.57;;;0.40;;
10801;SDS011;5453;50.852;7.102;2024-02-23T00:59:26;0.30;;;0.30;;
10801;SDS011;5453;50.852;7.102;2024-02-23T01:01:59;0.32;;;0.30;;
10801;SDS011;5453;50.852;7.102;2024-02-23T01:04:31;0.22;;;0.22;;
10801;SDS011;5453;50.852;7.102;2024-02-23T01:07:03;0.22;;;0.22;;
10801;SDS011;5453;50.852;7.102;2024-02-23T01:09:37;0.60;;;0.60;;
10801;SDS011;5453;50.852;7.102;2024-02-23T01:12:10;0.85;;;0.30;;
10801;SDS011;5453;50.852;7.102;2024-02-23T01:14:42;3.70;;;0.30;;
10801;SDS011;5453;50.852;7.102;2024-02-23T01:17:14;0.20;;;0.20;;
10801;SDS011;5453;50.852;7.102;2024-02-23T01:19:47;0.25;;;0.25;;
10801;SDS011;5453;50.852;7.102;2024-02-23T01:22:19;0.65;;;0.32;;
10801;SDS011;5453;50.852;7.102;2024-02-23T01:24:53;0.22;;;0.22;;
10801;SDS011;5453;50.852;7.102;2024-02-23T01:27:25;0.32;;;0.32;;
10801;SDS011;5453;50.852;7.102;2024-02-23T01:29:58;0.30;;;0.30;;
10801;SDS011;5453;50.852;7.102;2024-02-23T01:32:30;0.22;;;0.22;;
10801;SDS011;5453;50.852;7.102;2024-02-23T01:35:03;0.35;;;0.20;;
10801;SDS011;5453;50.852;7.102;2024-02-23T01:37:36;0.38;;;0.38;;
10801;SDS011;5453;50.852;7.102;2024-02-23T01:40:10;0.17;;;0.17;;
10801;SDS011;5453;50.852;7.102;2024-02-23T01:42:43;0.85;;;0.20;;
10801;SDS011;5453;50.852;7.102;2024-02-23T01:45:15;0.20;;;0.20;;
10801;SDS011;5453;50.852;7.102;2024-02-23T01:47:48;0.25;;;0.25;;
10801;SDS011;5453;50.852;7.102;2024-02-23T01:50:20;0.30;;;0.30;;
10801;SDS011;5453;50.852;7.102;2024-02-23T01:52:52;0.38;;;0.22;;
10801;SDS011;5453;50.852;7.102;2024-02-23T01:55:29;0.13;;;0.13;;
10801;SDS011;5453;50.852;7.102;2024-02-23T01:58:03;0.65;;;0.50;;
10801;SDS011;5453;50.852;7.102;2024-02-23T02:00:36;0.17;;;0.17;;
10801;SDS011;5453;50.852;7.102;2024-02-23T02:03:09;0.20;;;0.20;;
10801;SDS011;5453;50.852;7.102;2024-02-23T02:05:41;0.95;;;0.50;;
10801;SDS011;5453;50.852;7.102;2024-02-23T02:08:15;0.22;;;0.22;;
10801;SDS011;5453;50.852;7.102;2024-02-23T02:10:50;0.55;;;0.32;;
10801;SDS011;5453;50.852;7.102;2024-02-23T02:13:22;1.55;;;0.40;;
10801;SDS011;5453;50.852;7.102;2024-02-23T02:15:54;0.20;;;0.20;;
10801;SDS011;5453;50.852;7.102;2024-02-23T02:18:27;0.75;;;0.40;;
10801;SDS011;5453;50.852;7.102;2024-02-23T02:20:59;0.32;;;0.32;;
10801;SDS011;5453;50.852;7.102;2024-02-23T02:23:31;0.90;;;0.40;;
10801;SDS011;5453;50.852;7.102;2024-02-23T02:26:05;0.10;;;0.10;;
10801;SDS011;5453;50.852;7.102;2024-02-23T02:28:38;0.20;;;0.20;;
10801;SDS011;5453;50.852;7.102;2024-02-23T02:31:10;0.17;;;0.17;;
10801;SDS011;5453;50.852;7.102;2024-02-23T02:33:42;0.40;;;0.28;;
10801;SDS011;5453;50.852;7.102;2024-02-23T02:36:15;0.28;;;0.28;;
10801;SDS011;5453;50.852;7.102;2024-02-23T02:38:48;0.40;;;0.40;;
10801;SDS011;5453;50.852;7.102;2024-02-23T02:41:22;0.32;;;0.30;;
10801;SDS011;5453;50.852;7.102;2024-02-23T02:43:59;0.30;;;0.30;;
10801;SDS011;5453;50.852;7.102;2024-02-23T02:46:32;4.63;;;0.50;;
10801;SDS011;5453;50.852;7.102;2024-02-23T02:49:04;0.32;;;0.30;;
10801;SDS011;5453;50.852;7.102;2024-02-23T02:51:37;0.13;;;0.13;;
10801;SDS011;5453;50.852;7.102;2024-02-23T02:54:09;0.73;;;0.32;;
10801;SDS011;5453;50.852;7.102;2024-02-23T02:56:43;0.20;;;0.20;;
10801;SDS011;5453;50.852;7.102;2024-02-23T02:59:16;0.88;;;0.57;;
10801;SDS011;5453;50.852;7.102;2024-02-23T03:01:49;0.93;;;0.40;;
10801;SDS011;5453;50.852;7.102;2024-02-23T03:04:21;0.22;;;0.22;;
10801;SDS011;5453;50.852;7.102;2024-02-23T03:06:53;0.43;;;0.40;;
10801;SDS011;5453;50.852;7.102;2024-02-23T03:09:26;0.22;;;0.22;;
10801;SDS011;5453;50.852;7.102;2024-02-23T03:11:59;0.20;;;0.20;;
10801;SDS011;5453;50.852;7.102;2024-02-23T03:14:32;0.40;;;0.40;;
10801;SDS011;5453;50.852;7.102;2024-02-23T03:17:04;1.55;;;0.35;;
10801;SDS011;5453;50.852;7.102;2024-02-23T03:19:38;0.63;;;0.63;;
10801;SDS011;5453;50.852;7.102;2024-02-23T03:22:10;0.40;;;0.40;;
10801;SDS011;5453;50.852;7.102;2024-02-23T03:24:43;0.63;;;0.32;;
10801;SDS011;5453;50.852;7.102;2024-02-23T03:27:16;0.45;;;0.45;;
10801;SDS011;5453;50.852;7.102;2024-02-23T03:29:49;1.08;;;0.52;;
10801;SDS011;5453;50.852;7.102;2024-02-23T03:32:22;1.40;;;0.43;;
10801;SDS011;5453;50.852;7.102;2024-02-23T03:34:54;0.63;;;0.57;;
10801;SDS011;5453;50.852;7.102;2024-02-23T03:37:26;0.98;;;0.50;;
10801;SDS011;5453;50.852;7.102;2024-02-23T03:39:59;0.65;;;0.30;;
10801;SDS011;5453;50.852;7.102;2024-02-23T03:42:32;0.63;;;0.47;;
10801;SDS011;5453;50.852;7.102;2024-02-23T03:45:05;0.73;;;0.32;;
10801;SDS011;5453;50.852;7.102;2024-02-23T03:47:38;0.70;;;0.38;;
10801;SDS011;5453;50.852;7.102;2024-02-23T03:50:11;0.45;;;0.45;;
10801;SDS011;5453;50.852;7.102;2024-02-23T03:52:43;4.40;;;0.35;;
10801;SDS011;5453;50.852;7.102;2024-02-23T03:55:16;0.43;;;0.43;;
10801;SDS011;5453;50.852;7.102;2024-02-23T03:57:50;0.15;;;0.15;;
10801;SDS011;5453;50.852;7.102;2024-02-23T04:00:22;1.45;;;0.30;;
10801;SDS011;5453;50.852;7.102;2024-02-23T04:02:54;0.30;;;0.28;;
10801;SDS011;5453;50.852;7.102;2024-02-23T04:05:27;1.10;;;0.32;;
10801;SDS011;5453;50.852;7.102;2024-02-23T04:07:59;0.45;;;0.45;;
10801;SDS011;5453;50.852;7.102;2024-02-23T04:10:31;1.67;;;0.35;;
10801;SDS011;5453;50.852;7.102;2024-02-23T04:13:05;0.40;;;0.40;;
10801;SDS011;5453;50.852;7.102;2024-02-23T04:15:38;0.22;;;0.22;;
10801;SDS011;5453;50.852;7.102;2024-02-23T04:18:11;1.30;;;0.35;;
10801;SDS011;5453;50.852;7.102;2024-02-23T04:20:43;1.02;;;0.45;;
10801;SDS011;5453;50.852;7.102;2024-02-23T04:23:15;0.20;;;0.20;;
10801;SDS011;5453;50.852;7.102;2024-02-23T04:25:48;0.32;;;0.32;;
10801;SDS011;5453;50.852;7.102;2024-02-23T04:28:22;0.55;;;0.32;;
10801;SDS011;5453;50.852;7.102;2024-02-23T04:30:56;1.17;;;0.47;;
10801;SDS011;5453;50.852;7.102;2024-02-23T04:33:29;1.58;;;0.90;;
10801;SDS011;5453;50.852;7.102;2024-02-23T04:36:03;0.73;;;0.47;;
10801;SDS011;5453;50.852;7.102;2024-02-23T04:38:36;2.00;;;0.40;;
10801;SDS011;5453;50.852;7.102;2024-02-23T04:41:08;0.52;;;0.52;;
10801;SDS011;5453;50.852;7.102;2024-02-23T04:43:42;0.25;;;0.25;;
10801;SDS011;5453;50.852;7.102;2024-02-23T04:46:14;6.13;;;0.30;;
10801;SDS011;5453;50.852;7.102;2024-02-23T04:48:47;0.40;;;0.40;;
10801;SDS011;5453;50.852;7.102;2024-02-23T04:51:19;1.75;;;0.20;;
10801;SDS011;5453;50.852;7.102;2024-02-23T04:53:53;3.10;;;0.40;;
10801;SDS011;5453;50.852;7.102;2024-02-23T04:56:25;0.20;;;0.20;;
10801;SDS011;5453;50.852;7.102;2024-02-23T04:58:59;3.22;;;0.30;;
10801;SDS011;5453;50.852;7.102;2024-02-23T05:01:34;0.25;;;0.25;;
10801;SDS011;5453;50.852;7.102;2024-02-23T05:04:08;0.30;;;0.20;;
10801;SDS011;5453;50.852;7.102;2024-02-23T05:06:40;0.32;;;0.32;;
10801;SDS011;5453;50.852;7.102;2024-02-23T05:09:13;1.10;;;1.00;;
10801;SDS011;5453;50.852;7.102;2024-02-23T05:11:46;0.70;;;0.43;;
10801;SDS011;5453;50.852;7.102;2024-02-23T05:14:19;0.98;;;0.32;;
10801;SDS011;5453;50.852;7.102;2024-02-23T05:16:52;0.50;;;0.50;;
10801;SDS011;5453;50.852;7.102;2024-02-23T05:19:24;1.05;;;0.47;;
10801;SDS011;5453;50.852;7.102;2024-02-23T05:21:57;3.25;;;0.65;;
10801;SDS011;5453;50.852;7.102;2024-02-23T05:24:29;0.75;;;0.60;;
10801;SDS011;5453;50.852;7.102;2024-02-23T05:27:01;3.80;;;0.90;;
10801;SDS011;5453;50.852;7.102;2024-02-23T05:29:35;0.80;;;0.47;;
10801;SDS011;5453;50.852;7.102;2024-02-23T05:32:08;1.58;;;0.90;;
10801;SDS011;5453;50.852;7.102;2024-02-23T05:34:41;1.38;;;0.47;;
10801;SDS011;5453;50.852;7.102;2024-02-23T05:37:13;2.15;;;0.80;;
10801;SDS011;5453;50.852;7.102;2024-02-23T05:39:46;0.25;;;0.25;;
10801;SDS011;5453;50.852;7.102;2024-02-23T05:42:18;3.95;;;0.93;;
10801;SDS011;5453;50.852;7.102;2024-02-23T05:44:52;2.55;;;1.05;;
10801;SDS011;5453;50.852;7.102;2024-02-23T05:47:24;0.50;;;0.28;;
10801;SDS011;5453;50.852;7.102;2024-02-23T05:49:57;0.68;;;0.40;;
10801;SDS011;5453;50.852;7.102;2024-02-23T05:52:29;1.98;;;0.63;;
10801;SDS011;5453;50.852;7.102;2024-02-23T05:55:02;4.15;;;0.63;;
10801;SDS011;5453;50.852;7.102;2024-02-23T05:57:35;3.13;;;0.50;;
10801;SDS011;5453;50.852;7.102;2024-02-23T06:00:10;0.45;;;0.32;;
10801;SDS011;5453;50.852;7.102;2024-02-23T06:02:44;2.40;;;1.27;;
10801;SDS011;5453;50.852;7.102;2024-02-23T06:05:17;4.45;;;0.65;;
10801;SDS011;5453;50.852;7.102;2024-02-23T06:07:49;0.30;;;0.30;;
10801;SDS011;5453;50.852;7.102;2024-02-23T06:10:22;2.22;;;0.50;;
10801;SDS011;5453;50.852;7.102;2024-02-23T06:12:55;2.67;;;0.73;;
10801;SDS011;5453;50.852;7.102;2024-02-23T06:15:29;0.43;;;0.43;;
10801;SDS011;5453;50.852;7.102;2024-02-23T06:18:01;2.33;;;0.55;;
10801;SDS011;5453;50.852;7.102;2024-02-23T06:20:34;5.57;;;1.40;;
10801;SDS011;5453;50.852;7.102;2024-02-23T06:23:06;1.50;;;0.98;;
10801;SDS011;5453;50.852;7.102;2024-02-23T06:25:39;1.10;;;1.00;;
10801;SDS011;5453;50.852;7.102;2024-02-23T06:28:11;1.63;;;0.70;;
10801;SDS011;5453;50.852;7.102;2024-02-23T06:30:45;1.83;;;0.90;;
10801;SDS011;5453;50.852;7.102;2024-02-23T06:33:17;0.93;;;0.75;;
10801;SDS011;5453;50.852;7.102;2024-02-23T06:35:50;0.30;;;0.30;;
10801;SDS011;5453;50.852;7.102;2024-02-23T06:38:22;0.60;;;0.47;;
10801;SDS011;5453;50.852;7.102;2024-02-23T06:40:55;1.65;;;0.50;;
10801;SDS011;5453;50.852;7.102;2024-02-23T06:43:27;1.73;;;0.55;;
10801;SDS011;5453;50.852;7.102;2024-02-23T06:46:05;0.40;;;0.30;;
10801;SDS011;5453;50.852;7.102;2024-02-23T06:48:38;0.20;;;0.20;;
10801;SDS011;5453;50.852;7.102;2024-02-23T06:51:11;0.77;;;0.52;;
10801;SDS011;5453;50.852;7.102;2024-02-23T06:53:43;1.73;;;0.90;;
10801;SDS011;5453;50.852;7.102;2024-02-23T06:56:15;1.58;;;0.52;;
10801;SDS011;5453;50.852;7.102;2024-02-23T06:58:48;0.60;;;0.55;;
10801;SDS011;5453;50.852;7.102;2024-02-23T07:01:21;2.67;;;0.65;;
10801;SDS011;5453;50.852;7.102;2024-02-23T07:03:54;0.85;;;0.55;;
10801;SDS011;5453;50.852;7.102;2024-02-23T07:06:26;2.28;;;0.98;;
10801;SDS011;5453;50.852;7.102;2024-02-23T07:11:33;0.35;;;0.30;;
10801;SDS011;5453;50.852;7.102;2024-02-23T07:14:06;2.85;;;0.85;;
10801;SDS011;5453;50.852;7.102;2024-02-23T07:16:40;2.97;;;0.60;;
10801;SDS011;5453;50.852;7.102;2024-02-23T07:19:13;1.10;;;0.50;;
10801;SDS011;5453;50.852;7.102;2024-02-23T07:21:45;0.95;;;0.40;;
10801;SDS011;5453;50.852;7.102;2024-02-23T07:24:18;2.28;;;0.65;;
10801;SDS011;5453;50.852;7.102;2024-02-23T07:26:50;0.28;;;0.28;;
10801;SDS011;5453;50.852;7.102;2024-02-23T07:29:22;8.52;;;0.90;;
10801;SDS011;5453;50.852;7.102;2024-02-23T07:31:56;2.00;;;0.47;;
10801;SDS011;5453;50.852;7.102;2024-02-23T07:34:28;2.10;;;1.00;;
10801;SDS011;5453;50.852;7.102;2024-02-23T07:37:02;2.75;;;0.43;;
10801;SDS011;5453;50.852;7.102;2024-02-23T07:39:35;2.67;;;0.77;;
10801;SDS011;5453;50.852;7.102;2024-02-23T07:42:08;2.20;;;0.38;;
10801;SDS011;5453;50.852;7.102;2024-02-23T07:44:40;1.17;;;0.52;;
10801;SDS011;5453;50.852;7.102;2024-02-23T07:47:14;0.75;;;0.32;;
10801;SDS011;5453;50.852;7.102;2024-02-23T07:49:47;0.77;;;0.55;;
10801;SDS011;5453;50.852;7.102;2024-02-23T07:52:19;1.65;;;0.60;;
10801;SDS011;5453;50.852;7.102;2024-02-23T07:54:54;1.73;;;0.68;;
10801;SDS011;5453;50.852;7.102;2024-02-23T07:57:26;0.38;;;0.38;;
10801;SDS011;5453;50.852;7.102;2024-02-23T07:59:58;0.95;;;0.40;;
10801;SDS011;5453;50.852;7.102;2024-02-23T08:02:32;2.97;;;0.82;;
10801;SDS011;5453;50.852;7.102;2024-02-23T08:05:05;0.60;;;0.52;;
10801;SDS011;5453;50.852;7.102;2024-02-23T08:07:38;0.40;;;0.35;;
10801;SDS011;5453;50.852;7.102;2024-02-23T08:10:10;3.60;;;0.70;;
10801;SDS011;5453;50.852;7.102;2024-02-23T08:12:43;1.23;;;0.75;;
10801;SDS011;5453;50.852;7.102;2024-02-23T08:15:15;0.20;;;0.20;;
10801;SDS011;5453;50.852;7.102;2024-02-23T08:17:49;3.13;;;0.57;;
10801;SDS011;5453;50.852;7.102;2024-02-23T08:20:21;1.00;;;0.30;;
10801;SDS011;5453;50.852;7.102;2024-02-23T08:22:54;4.93;;;0.68;;
10801;SDS011;5453;50.852;7.102;2024-02-23T08:25:27;7.95;;;0.70;;
10801;SDS011;5453;50.852;7.102;2024-02-23T08:27:59;0.82;;;0.35;;
10801;SDS011;5453;50.852;7.102;2024-02-23T08:30:32;3.83;;;0.52;;
10801;SDS011;5453;50.852;7.102;2024-02-23T08:33:06;3.13;;;0.68;;
10801;SDS011;5453;50.852;7.102;2024-02-23T08:35:40;1.05;;;0.55;;
10801;SDS011;5453;50.852;7.102;2024-02-23T08:38:13;0.68;;;0.20;;
10801;SDS011;5453;50.852;7.102;2024-02-23T08:40:45;4.28;;;0.57;;
10801;SDS011;5453;50.852;7.102;2024-02-23T08:43:18;1.33;;;0.43;;
10801;SDS011;5453;50.852;7.102;2024-02-23T08:45:50;1.58;;;0.75;;
10801;SDS011;5453;50.852;7.102;2024-02-23T08:48:24;0.50;;;0.50;;
10801;SDS011;5453;50.852;7.102;2024-02-23T08:50:56;1.33;;;0.47;;
10801;SDS011;5453;50.852;7.102;2024-02-23T08:53:29;1.50;;;0.50;;
10801;SDS011;5453;50.852;7.102;2024-02-23T08:56:01;3.53;;;1.15;;
10801;SDS011;5453;50.852;7.102;2024-02-23T08:58:34;3.58;;;1.40;;
10801;SDS011;5453;50.852;7.102;2024-02-23T09:01:07;11.65;;;4.70;;
10801;SDS011;5453;50.852;7.102;2024-02-23T09:03:41;5.03;;;2.10;;
10801;SDS011;5453;50.852;7.102;2024-02-23T09:06:13;1.23;;;0.95;;
10801;SDS011;5453;50.852;7.102;2024-02-23T09:08:46;0.60;;;0.60;;
10801;SDS011;5453;50.852;7.102;2024-02-23T09:11:18;5.38;;;0.88;;
10801;SDS011;5453;50.852;7.102;2024-02-23T09:13:50;1.67;;;0.80;;
10801;SDS011;5453;50.852;7.102;2024-02-23T09:16:23;2.15;;;1.05;;
10801;SDS011;5453;50.852;7.102;2024-02-23T09:18:56;9.30;;;3.45;;
10801;SDS011;5453;50.852;7.102;2024-02-23T09:21:29;9.93;;;5.70;;
10801;SDS011;5453;50.852;7.102;2024-02-23T09:24:01;5.70;;;2.97;;
10801;SDS011;5453;50.852;7.102;2024-02-23T09:26:34;12.20;;;5.28;;
10801;SDS011;5453;50.852;7.102;2024-02-23T09:29:06;8.80;;;3.97;;
10801;SDS011;5453;50.852;7.102;2024-02-23T09:31:39;6.75;;;3.38;;
10801;SDS011;5453;50.852;7.102;2024-02-23T09:34:12;2.17;;;1.60;;
10801;SDS011;5453;50.852;7.102;2024-02-23T09:36:45;3.67;;;1.30;;
10801;SDS011;5453;50.852;7.102;2024-02-23T09:39:17;1.65;;;1.13;;
10801;SDS011;5453;50.852;7.102;2024-02-23T09:41:50;2.67;;;1.40;;
10801;SDS011;5453;50.852;7.102;2024-02-23T09:44:23;1.85;;;0.90;;
10801;SDS011;5453;50.852;7.102;2024-02-23T09:46:57;0.80;;;0.80;;
10801;SDS011;5453;50.852;7.102;2024-02-23T09:49:33;1.33;;;0.77;;
10801;SDS011;5453;50.852;7.102;2024-02-23T09:52:08;0.40;;;0.40;;
10801;SDS011;5453;50.852;7.102;2024-02-23T09:54:41;1.40;;;1.10;;
10801;SDS011;5453;50.852;7.102;2024-02-23T09:57:14;0.52;;;0.52;;
10801;SDS011;5453;50.852;7.102;2024-02-23T09:59:48;2.42;;;0.40;;
10801;SDS011;5453;50.852;7.102;2024-02-23T10:02:20;1.10;;;0.70;;
10801;SDS011;5453;50.852;7.102;2024-02-23T10:04:54;1.40;;;0.85;;
10801;SDS011;5453;50.852;7.102;2024-02-23T10:10:00;0.55;;;0.45;;
10801;SDS011;5453;50.852;7.102;2024-02-23T10:12:33;1.20;;;1.05;;
10801;SDS011;5453;50.852;7.102;2024-02-23T10:15:07;0.25;;;0.25;;
10801;SDS011;5453;50.852;7.102;2024-02-23T10:17:39;2.28;;;0.40;;
10801;SDS011;5453;50.852;7.102;2024-02-23T10:20:13;0.38;;;0.38;;
10801;SDS011;5453;50.852;7.102;2024-02-23T10:22:45;0.20;;;0.20;;
10801;SDS011;5453;50.852;7.102;2024-02-23T10:25:18;0.30;;;0.30;;
10801;SDS011;5453;50.852;7.102;2024-02-23T10:27:51;0.65;;;0.47;;
10801;SDS011;5453;50.852;7.102;2024-02-23T10:30:23;0.22;;;0.22;;
10801;SDS011;5453;50.852;7.102;2024-02-23T10:32:58;2.80;;;0.60;;
10801;SDS011;5453;50.852;7.102;2024-02-23T10:35:32;2.13;;;0.40;;
10801;SDS011;5453;50.852;7.102;2024-02-23T10:38:10;0.95;;;0.63;;
10801;SDS011;5453;50.852;7.102;2024-02-23T10:40:44;1.00;;;0.50;;
10801;SDS011;5453;50.852;7.102;2024-02-23T10:43:19;0.30;;;0.30;;
10801;SDS011;5453;50.852;7.102;2024-02-23T10:45:51;0.60;;;0.40;;
10801;SDS011;5453;50.852;7.102;2024-02-23T10:48:25;1.65;;;0.60;;
10801;SDS011;5453;50.852;7.102;2024-02-23T10:51:01;0.30;;;0.20;;
10801;SDS011;5453;50.852;7.102;2024-02-23T10:53:37;0.63;;;0.45;;
10801;SDS011;5453;50.852;7.102;2024-02-23T10:56:11;0.40;;;0.28;;
10801;SDS011;5453;50.852;7.102;2024-02-23T10:58:43;2.90;;;0.50;;
10801;SDS011;5453;50.852;7.102;2024-02-23T11:01:16;0.30;;;0.30;;
10801;SDS011;5453;50.852;7.102;2024-02-23T11:03:49;0.88;;;0.32;;
10801;SDS011;5453;50.852;7.102;2024-02-23T11:06:28;1.30;;;0.43;;
10801;SDS011;5453;50.852;7.102;2024-02-23T11:09:06;0.63;;;0.50;;
10801;SDS011;5453;50.852;7.102;2024-02-23T11:11:39;1.67;;;0.40;;
10801;SDS011;5453;50.852;7.102;2024-02-23T11:14:29;1.45;;;0.32;;
10801;SDS011;5453;50.852;7.102;2024-02-23T11:17:03;0.32;;;0.20;;
10801;SDS011;5453;50.852;7.102;2024-02-23T11:19:36;0.30;;;0.30;;
10801;SDS011;5453;50.852;7.102;2024-02-23T11:22:12;2.75;;;0.50;;
10801;SDS011;5453;50.852;7.102;2024-02-23T11:24:44;3.60;;;0.60;;
10801;SDS011;5453;50.852;7.102;2024-02-23T11:27:17;1.15;;;0.25;;
10801;SDS011;5453;50.852;7.102;2024-02-23T11:29:52;1.67;;;0.43;;
10801;SDS011;5453;50.852;7.102;2024-02-23T11:32:36;3.22;;;0.45;;
10801;SDS011;5453;50.852;7.102;2024-02-23T11:35:11;0.60;;;0.60;;
10801;SDS011;5453;50.852;7.102;2024-02-23T11:37:47;1.10;;;0.40;;
10801;SDS011;5453;50.852;7.102;2024-02-23T11:40:22;0.25;;;0.25;;
10801;SDS011;5453;50.852;7.102;2024-02-23T11:42:55;0.20;;;0.20;;
10801;SDS011;5453;50.852;7.102;2024-02-23T11:45:27;0.73;;;0.28;;
10801;SDS011;5453;50.852;7.102;2024-02-23T11:48:01;0.90;;;0.40;;
10801;SDS011;5453;50.852;7.102;2024-02-23T11:50:33;1.67;;;0.68;;
10801;SDS011;5453;50.852;7.102;2024-02-23T11:53:08;1.20;;;0.35;;
10801;SDS011;5453;50.852;7.102;2024-02-23T11:55:40;0.30;;;0.22;;
10801;SDS011;5453;50.852;7.102;2024-02-23T11:58:13;1.85;;;0.63;;
10801;SDS011;5453;50.852;7.102;2024-02-23T12:00:46;0.52;;;0.28;;
10801;SDS011;5453;50.852;7.102;2024-02-23T12:03:19;1.27;;;0.50;;
10801;SDS011;5453;50.852;7.102;2024-02-23T12:05:51;0.65;;;0.52;;
10801;SDS011;5453;50.852;7.102;2024-02-23T12:08:25;1.52;;;0.52;;
10801;SDS011;5453;50.852;7.102;2024-02-23T12:10:58;0.52;;;0.45;;
10801;SDS011;5453;50.852;7.102;2024-02-23T12:13:31;2.28;;;0.52;;
10801;SDS011;5453;50.852;7.102;2024-02-23T12:16:06;0.38;;;0.30;;
10801;SDS011;5453;50.852;7.102;2024-02-23T12:18:39;0.30;;;0.25;;
10801;SDS011;5453;50.852;7.102;2024-02-23T12:21:12;0.50;;;0.40;;
10801;SDS011;5453;50.852;7.102;2024-02-23T12:23:46;1.92;;;0.60;;
10801;SDS011;5453;50.852;7.102;2024-02-23T12:26:21;0.45;;;0.43;;
10801;SDS011;5453;50.852;7.102;2024-02-23T12:28:53;0.75;;;0.52;;
10801;SDS011;5453;50.852;7.102;2024-02-23T12:31:33;0.38;;;0.22;;
10801;SDS011;5453;50.852;7.102;2024-02-23T12:34:05;0.50;;;0.50;;
10801;SDS011;5453;50.852;7.102;2024-02-23T12:36:38;1.75;;;0.43;;
10801;SDS011;5453;50.852;7.102;2024-02-23T12:39:12;0.82;;;0.82;;
10801;SDS011;5453;50.852;7.102;2024-02-23T12:41:45;3.70;;;0.63;;
10801;SDS011;5453;50.852;7.102;2024-02-23T12:44:17;2.63;;;0.52;;
10801;SDS011;5453;50.852;7.102;2024-02-23T12:46:49;3.10;;;0.65;;
10801;SDS011;5453;50.852;7.102;2024-02-23T12:49:22;1.27;;;0.22;;
10801;SDS011;5453;50.852;7.102;2024-02-23T12:51:54;1.50;;;0.40;;
10801;SDS011;5453;50.852;7.102;2024-02-23T12:54:28;4.53;;;0.60;;
10801;SDS011;5453;50.852;7.102;2024-02-23T12:57:00;0.30;;;0.30;;
10801;SDS011;5453;50.852;7.102;2024-02-23T12:59:32;0.30;;;0.28;;
10801;SDS011;5453;50.852;7.102;2024-02-23T13:02:05;0.32;;;0.32;;
10801;SDS011;5453;50.852;7.102;2024-02-23T13:04:39;0.95;;;0.60;;
10801;SDS011;5453;50.852;7.102;2024-02-23T13:07:13;2.08;;;0.43;;
10801;SDS011;5453;50.852;7.102;2024-02-23T13:09:47;0.70;;;0.43;;
10801;SDS011;5453;50.852;7.102;2024-02-23T13:12:19;0.57;;;0.57;;
10801;SDS011;5453;50.852;7.102;2024-02-23T13:14:52;1.20;;;0.38;;
10801;SDS011;5453;50.852;7.102;2024-02-23T13:17:24;1.30;;;0.47;;
10801;SDS011;5453;50.852;7.102;2024-02-23T13:19:57;0.40;;;0.40;;
10801;SDS011;5453;50.852;7.102;2024-02-23T13:22:30;0.32;;;0.32;;
10801;SDS011;5453;50.852;7.102;2024-02-23T13:25:04;0.35;;;0.20;;
10801;SDS011;5453;50.852;7.102;2024-02-23T13:27:37;0.35;;;0.30;;
10801;SDS011;5453;50.852;7.102;2024-02-23T13:30:10;0.45;;;0.40;;
10801;SDS011;5453;50.852;7.102;2024-02-23T13:32:43;0.77;;;0.40;;
10801;SDS011;5453;50.852;7.102;2024-02-23T13:35:16;0.65;;;0.50;;
10801;SDS011;5453;50.852;7.102;2024-02-23T13:37:49;1.95;;;0.70;;
10801;SDS011;5453;50.852;7.102;2024-02-23T13:40:22;0.85;;;0.57;;
10801;SDS011;5453;50.852;7.102;2024-02-23T13:42:55;0.30;;;0.30;;
10801;SDS011;5453;50.852;7.102;2024-02-23T13:45:27;1.48;;;0.50;;
10801;SDS011;5453;50.852;7.102;2024-02-23T13:48:00;1.63;;;0.70;;
10801;SDS011;5453;50.852;7.102;2024-02-23T13:50:35;0.65;;;0.65;;
10801;SDS011;5453;50.852;7.102;2024-02-23T13:53:07;0.28;;;0.28;;
10801;SDS011;5453;50.852;7.102;2024-02-23T13:55:41;0.25;;;0.25;;
10801;SDS011;5453;50.852;7.102;2024-02-23T13:58:14;1.08;;;0.40;;
10801;SDS011;5453;50.852;7.102;2024-02-23T14:00:47;0.90;;;0.35;;
10801;SDS011;5453;50.852;7.102;2024-02-23T14:03:19;0.47;;;0.43;;
10801;SDS011;5453;50.852;7.102;2024-02-23T14:05:53;1.40;;;0.60;;
10801;SDS011;5453;50.852;7.102;2024-02-23T14:08:25;2.58;;;0.90;;
10801;SDS011;5453;50.852;7.102;2024-02-23T14:10:59;0.88;;;0.52;;
10801;SDS011;5453;50.852;7.102;2024-02-23T14:13:32;3.40;;;0.70;;
10801;SDS011;5453;50.852;7.102;2024-02-23T14:16:04;0.22;;;0.22;;
10801;SDS011;5453;50.852;7.102;2024-02-23T14:18:37;0.93;;;0.22;;
10801;SDS011;5453;50.852;7.102;2024-02-23T14:21:12;1.63;;;0.50;;
10801;SDS011;5453;50.852;7.102;2024-02-23T14:23:45;3.83;;;0.55;;
10801;SDS011;5453;50.852;7.102;2024-02-23T14:26:19;0.30;;;0.30;;
10801;SDS011;5453;50.852;7.102;2024-02-23T14:28:52;1.85;;;0.65;;
10801;SDS011;5453;50.852;7.102;2024-02-23T14:31:24;0.32;;;0.32;;
10801;SDS011;5453;50.852;7.102;2024-02-23T14:33:56;1.88;;;0.32;;
10801;SDS011;5453;50.852;7.102;2024-02-23T14:36:29;0.98;;;0.63;;
10801;SDS011;5453;50.852;7.102;2024-02-23T14:39:04;1.65;;;0.60;;
10801;SDS011;5453;50.852;7.102;2024-02-23T14:41:38;0.70;;;0.47;;
10801;SDS011;5453;50.852;7.102;2024-02-23T14:44:10;1.75;;;0.60;;
10801;SDS011;5453;50.852;7.102;2024-02-23T14:46:43;1.85;;;0.50;;
10801;SDS011;5453;50.852;7.102;2024-02-23T14:49:15;2.80;;;0.70;;
10801;SDS011;5453;50.852;7.102;2024-02-23T14:51:47;0.85;;;0.43;;
10801;SDS011;5453;50.852;7.102;2024-02-23T14:54:20;1.75;;;0.63;;
10801;SDS011;5453;50.852;7.102;2024-02-23T14:56:54;1.25;;;0.47;;
10801;SDS011;5453;50.852;7.102;2024-02-23T14:59:26;0.90;;;0.70;;
10801;SDS011;5453;50.852;7.102;2024-02-23T15:01:59;0.55;;;0.55;;
10801;SDS011;5453;50.852;7.102;2024-02-23T15:04:31;1.20;;;0.32;;
10801;SDS011;5453;50.852;7.102;2024-02-23T15:07:03;1.10;;;0.55;;
10801;SDS011;5453;50.852;7.102;2024-02-23T15:09:36;0.32;;;0.32;;
10801;SDS011;5453;50.852;7.102;2024-02-23T15:12:10;4.13;;;0.40;;
10801;SDS011;5453;50.852;7.102;2024-02-23T15:14:44;1.42;;;0.40;;
10801;SDS011;5453;50.852;7.102;2024-02-23T15:17:16;1.67;;;0.60;;
10801;SDS011;5453;50.852;7.102;2024-02-23T15:19:48;2.20;;;0.60;;
10801;SDS011;5453;50.852;7.102;2024-02-23T15:22:21;0.45;;;0.32;;
10801;SDS011;5453;50.852;7.102;2024-02-23T15:24:53;1.50;;;0.43;;
10801;SDS011;5453;50.852;7.102;2024-02-23T15:30:02;0.65;;;0.43;;
10801;SDS011;5453;50.852;7.102;2024-02-23T15:32:38;1.85;;;0.40;;
10801;SDS011;5453;50.852;7.102;2024-02-23T15:35:10;0.55;;;0.28;;
10801;SDS011;5453;50.852;7.102;2024-02-23T15:37:42;1.38;;;0.68;;
10801;SDS011;5453;50.852;7.102;2024-02-23T15:40:15;0.45;;;0.20;;
10801;SDS011;5453;50.852;7.102;2024-02-23T15:42:49;1.77;;;0.68;;